createdAt,value
2018-09-12T00:00:50.703Z,19.80
2018-09-12T00:03:19.415Z,19.80
2018-09-12T00:05:48.182Z,19.80
2018-09-12T00:08:16.940Z,19.80
2018-09-12T00:10:45.589Z,19.80
2018-09-12T00:13:14.340Z,19.80
2018-09-12T00:15:43.010Z,19.80
2018-09-12T00:18:11.615Z,19.80
2018-09-12T00:20:40.225Z,19.80
2018-09-12T00:23:08.812Z,19.90
2018-09-12T00:25:37.435Z,20.00
2018-09-12T00:28:06.040Z,19.90
2018-09-12T00:30:34.609Z,20.00
2018-09-12T00:33:03.213Z,20.00
2018-09-12T00:35:31.809Z,19.90
2018-09-12T00:38:00.478Z,20.00
2018-09-12T00:40:29.059Z,20.00
2018-09-12T00:42:57.632Z,20.00
2018-09-12T00:45:26.220Z,20.00
2018-09-12T00:47:54.858Z,20.00
2018-09-12T00:50:23.444Z,19.90
2018-09-12T00:52:52.045Z,19.90
2018-09-12T00:55:20.708Z,19.90
2018-09-12T00:57:49.391Z,19.90
2018-09-12T01:00:18.008Z,19.90
2018-09-12T01:02:46.619Z,19.90
2018-09-12T01:05:15.199Z,19.80
2018-09-12T01:07:43.859Z,19.80
2018-09-12T01:10:12.483Z,19.80
2018-09-12T01:12:41.097Z,19.80
2018-09-12T01:15:09.749Z,19.80
2018-09-12T01:17:38.317Z,19.80
2018-09-12T01:20:06.941Z,19.80
2018-09-12T01:22:35.550Z,19.70
2018-09-12T01:25:04.172Z,19.80
2018-09-12T01:27:33.682Z,19.80
2018-09-12T01:30:02.374Z,19.80
2018-09-12T01:32:30.992Z,19.80
2018-09-12T01:34:59.576Z,19.80
2018-09-12T01:37:28.252Z,19.80
2018-09-12T01:39:56.798Z,19.80
2018-09-12T01:42:25.392Z,19.80
2018-09-12T01:44:54.004Z,19.80
2018-09-12T01:47:22.604Z,19.80
2018-09-12T01:49:51.225Z,19.70
2018-09-12T01:52:19.867Z,19.70
2018-09-12T01:54:48.437Z,19.70
2018-09-12T01:57:17.075Z,19.80
2018-09-12T01:59:45.754Z,19.70
2018-09-12T02:02:14.343Z,19.70
2018-09-12T02:04:42.975Z,19.70
2018-09-12T02:07:11.525Z,19.70
2018-09-12T02:09:40.096Z,19.70
2018-09-12T02:12:08.789Z,19.70
2018-09-12T02:14:37.440Z,19.70
2018-09-12T02:17:06.066Z,19.70
2018-09-12T02:19:34.680Z,19.70
2018-09-12T02:22:03.318Z,19.60
2018-09-12T02:24:31.942Z,19.60
2018-09-12T02:27:00.552Z,19.70
2018-09-12T02:29:29.146Z,19.70
2018-09-12T02:31:57.795Z,19.80
2018-09-12T02:34:26.400Z,19.70
2018-09-12T02:36:55.002Z,19.70
2018-09-12T02:39:23.528Z,19.60
2018-09-12T02:41:52.139Z,19.60
2018-09-12T02:44:20.791Z,19.70
2018-09-12T02:46:49.387Z,19.70
2018-09-12T02:49:18.056Z,19.60
2018-09-12T02:51:46.635Z,19.70
2018-09-12T02:54:15.257Z,19.70
2018-09-12T02:56:43.888Z,19.70
2018-09-12T02:59:12.464Z,19.60
2018-09-12T03:01:41.240Z,19.60
2018-09-12T03:04:09.838Z,19.60
2018-09-12T03:06:38.510Z,19.60
2018-09-12T03:09:07.974Z,19.60
2018-09-12T03:11:36.609Z,19.60
2018-09-12T03:14:05.254Z,19.60
2018-09-12T03:16:33.980Z,19.60
2018-09-12T03:19:02.608Z,19.60
2018-09-12T03:21:31.305Z,19.60
2018-09-12T03:23:59.950Z,19.60
2018-09-12T03:26:28.868Z,19.60
2018-09-12T03:28:57.448Z,19.50
2018-09-12T03:31:26.102Z,19.50
2018-09-12T03:33:54.728Z,19.50
2018-09-12T03:36:23.402Z,19.50
2018-09-12T03:38:52.102Z,19.50
2018-09-12T03:41:20.662Z,19.40
2018-09-12T03:43:49.321Z,19.40
2018-09-12T03:46:18.013Z,19.40
2018-09-12T03:48:46.667Z,19.30
2018-09-12T03:51:15.298Z,19.30
2018-09-12T03:53:43.882Z,19.30
2018-09-12T03:56:12.475Z,19.30
2018-09-12T03:58:41.130Z,19.30
2018-09-12T04:01:09.799Z,19.30
2018-09-12T04:03:38.375Z,19.30
2018-09-12T04:06:07.129Z,19.30
2018-09-12T04:08:35.742Z,19.30
2018-09-12T04:11:04.408Z,19.30
2018-09-12T04:13:33.047Z,19.30
2018-09-12T04:16:01.720Z,19.30
2018-09-12T04:18:30.329Z,19.20
2018-09-12T04:20:59.042Z,19.30
2018-09-12T04:23:27.736Z,19.30
2018-09-12T04:25:56.383Z,19.30
2018-09-12T04:28:24.938Z,19.30
2018-09-12T04:30:53.551Z,19.30
2018-09-12T04:33:22.323Z,19.30
2018-09-12T04:35:50.923Z,19.30
2018-09-12T04:38:19.661Z,19.30
2018-09-12T04:40:48.316Z,19.30
2018-09-12T04:43:16.987Z,19.30
2018-09-12T04:45:45.619Z,19.30
2018-09-12T04:48:14.768Z,19.30
2018-09-12T04:50:43.576Z,19.30
2018-09-12T04:53:12.186Z,19.40
2018-09-12T04:55:40.918Z,19.30
2018-09-12T04:58:09.558Z,19.30
2018-09-12T05:00:38.234Z,19.30
2018-09-12T05:03:06.923Z,19.30
2018-09-12T05:05:35.553Z,19.20
2018-09-12T05:08:04.278Z,19.20
2018-09-12T05:10:33.059Z,19.20
2018-09-12T05:13:01.796Z,19.20
2018-09-12T05:15:30.541Z,19.30
2018-09-12T05:17:59.210Z,19.20
2018-09-12T05:20:27.914Z,19.20
2018-09-12T05:22:56.515Z,19.20
2018-09-12T05:25:25.185Z,19.20
2018-09-12T05:27:53.846Z,19.20
2018-09-12T05:30:22.555Z,19.10
2018-09-12T05:32:51.197Z,19.10
2018-09-12T05:35:19.831Z,19.10
2018-09-12T05:37:48.531Z,19.10
2018-09-12T05:40:17.108Z,19.10
2018-09-12T05:42:45.863Z,19.10
2018-09-12T05:45:14.543Z,19.20
2018-09-12T05:47:43.918Z,19.10
2018-09-12T05:50:12.649Z,19.20
2018-09-12T05:52:41.289Z,19.20
2018-09-12T05:55:09.940Z,19.20
2018-09-12T05:57:38.654Z,19.20
2018-09-12T06:00:08.848Z,19.20
2018-09-12T06:02:37.817Z,19.20
2018-09-12T06:05:06.683Z,19.20
2018-09-12T06:07:35.344Z,19.20
2018-09-12T06:10:04.077Z,19.20
2018-09-12T06:12:32.775Z,19.20
2018-09-12T06:15:01.374Z,19.20
2018-09-12T06:17:30.005Z,19.20
2018-09-12T06:19:58.639Z,19.20
2018-09-12T06:22:27.212Z,19.30
2018-09-12T06:24:58.106Z,19.20
2018-09-12T06:27:28.996Z,19.30
2018-09-12T06:29:57.585Z,19.30
2018-09-12T06:32:26.156Z,19.30
2018-09-12T06:34:54.725Z,19.30
2018-09-12T06:37:23.570Z,19.30
2018-09-12T06:39:52.228Z,19.30
2018-09-12T06:42:20.925Z,19.40
2018-09-12T06:44:49.531Z,19.40
2018-09-12T06:47:18.094Z,19.40
2018-09-12T06:49:48.628Z,19.40
2018-09-12T06:52:19.268Z,19.40
2018-09-12T06:54:47.968Z,19.30
2018-09-12T06:57:16.499Z,19.30
2018-09-12T06:59:45.063Z,19.30
2018-09-12T07:02:13.686Z,19.30
2018-09-12T07:04:42.279Z,19.30
2018-09-12T07:07:10.873Z,19.40
2018-09-12T07:09:39.460Z,19.40
2018-09-12T07:12:08.178Z,19.50
2018-09-12T07:14:37.051Z,19.60
2018-09-12T07:17:05.721Z,19.50
2018-09-12T07:19:34.259Z,19.60
2018-09-12T07:22:03.711Z,19.60
2018-09-12T07:24:32.442Z,19.50
2018-09-12T07:27:00.909Z,19.50
2018-09-12T07:29:29.518Z,19.60
2018-09-12T07:31:58.122Z,19.60
2018-09-12T07:34:26.732Z,19.60
2018-09-12T07:36:55.329Z,19.60
2018-09-12T07:39:23.943Z,19.60
2018-09-12T07:41:52.526Z,19.60
2018-09-12T07:44:21.713Z,19.70
2018-09-12T07:46:50.304Z,19.70
2018-09-12T07:49:18.855Z,19.70
2018-09-12T07:51:47.437Z,19.70
2018-09-12T07:54:16.032Z,19.70
2018-09-12T07:56:44.700Z,19.80
2018-09-12T07:59:13.278Z,19.80
2018-09-12T08:01:41.816Z,19.80
2018-09-12T08:04:10.446Z,19.80
2018-09-12T08:06:39.079Z,19.80
2018-09-12T08:09:09.703Z,19.80
2018-09-12T08:11:38.312Z,19.80
2018-09-12T08:14:07.003Z,19.90
2018-09-12T08:16:35.673Z,19.90
2018-09-12T08:19:04.343Z,20.00
2018-09-12T08:21:32.933Z,20.10
2018-09-12T08:24:01.559Z,20.10
2018-09-12T08:26:30.351Z,20.10
2018-09-12T08:28:58.989Z,20.30
2018-09-12T08:31:27.990Z,20.50
2018-09-12T08:33:56.580Z,20.60
2018-09-12T08:36:25.370Z,20.80
2018-09-12T08:38:54.050Z,20.80
2018-09-12T08:41:22.672Z,20.90
2018-09-12T08:43:51.348Z,20.90
2018-09-12T08:46:20.014Z,20.90
2018-09-12T08:48:48.766Z,20.80
2018-09-12T08:51:17.401Z,20.90
2018-09-12T08:53:46.076Z,20.90
2018-09-12T08:56:14.693Z,21.00
2018-09-12T08:58:43.359Z,21.00
2018-09-12T09:01:11.973Z,21.00
2018-09-12T09:03:40.569Z,21.00
2018-09-12T09:06:09.313Z,21.00
2018-09-12T09:08:38.085Z,21.00
2018-09-12T09:11:07.251Z,20.90
2018-09-12T09:13:35.877Z,20.90
2018-09-12T09:16:04.506Z,20.50
2018-09-12T09:18:33.173Z,19.90
2018-09-12T09:21:01.704Z,19.30
2018-09-12T09:23:30.282Z,18.70
2018-09-12T09:25:58.914Z,18.60
2018-09-12T09:28:27.473Z,18.40
2018-09-12T09:30:56.120Z,18.10
2018-09-12T09:33:24.778Z,17.90
2018-09-12T09:35:53.402Z,17.50
2018-09-12T09:38:22.043Z,17.20
2018-09-12T09:40:50.735Z,17.00
2018-09-12T09:43:19.339Z,16.70
2018-09-12T09:45:47.954Z,16.60
2018-09-12T09:48:16.698Z,16.60
2018-09-12T09:50:45.276Z,16.70
2018-09-12T09:53:13.946Z,16.70
2018-09-12T09:55:42.513Z,16.70
2018-09-12T09:58:11.135Z,16.70
2018-09-12T10:00:45.056Z,16.60
2018-09-12T10:03:19.053Z,16.60
2018-09-12T10:05:52.999Z,16.50
2018-09-12T10:08:26.987Z,16.30
2018-09-12T10:10:55.650Z,16.30
2018-09-12T10:13:24.319Z,16.30
2018-09-12T10:15:52.977Z,16.30
2018-09-12T10:18:21.748Z,16.50
2018-09-12T10:20:50.472Z,16.60
2018-09-12T10:23:21.371Z,16.70
2018-09-12T10:25:50.010Z,16.90
2018-09-12T10:28:18.778Z,16.80
2018-09-12T10:30:47.422Z,16.70
2018-09-12T10:33:16.134Z,16.60
2018-09-12T10:35:44.794Z,16.60
2018-09-12T10:38:13.494Z,16.60
2018-09-12T10:40:42.310Z,16.60
2018-09-12T10:43:11.235Z,16.70
2018-09-12T10:45:39.892Z,16.70
2018-09-12T10:48:08.618Z,16.70
2018-09-12T10:50:37.323Z,16.70
2018-09-12T10:53:05.963Z,16.80
2018-09-12T10:55:34.637Z,16.90
2018-09-12T10:58:03.274Z,17.00
2018-09-12T11:00:31.896Z,16.90
2018-09-12T11:03:00.554Z,16.80
2018-09-12T11:05:29.322Z,16.60
2018-09-12T11:07:57.948Z,16.60
2018-09-12T11:10:26.655Z,16.60
2018-09-12T11:12:55.415Z,16.60
2018-09-12T11:15:24.098Z,16.70
2018-09-12T11:17:53.315Z,16.60
2018-09-12T11:20:21.958Z,16.50
2018-09-12T11:22:50.658Z,16.30
2018-09-12T11:25:19.305Z,16.30
2018-09-12T11:27:48.457Z,16.20
2018-09-12T11:30:17.241Z,16.00
2018-09-12T11:32:45.896Z,16.10
2018-09-12T11:35:14.519Z,16.20
2018-09-12T11:37:43.204Z,16.30
2018-09-12T11:40:11.982Z,16.40
2018-09-12T11:42:40.698Z,16.60
2018-09-12T11:45:09.352Z,16.60
2018-09-12T11:47:37.945Z,16.60
2018-09-12T11:50:06.728Z,16.70
2018-09-12T11:52:35.408Z,16.70
2018-09-12T11:55:04.145Z,16.70
2018-09-12T11:57:32.733Z,16.60
2018-09-12T12:00:01.308Z,16.70
2018-09-12T12:02:29.925Z,16.70
2018-09-12T12:04:58.597Z,16.70
2018-09-12T12:07:27.307Z,16.70
2018-09-12T12:09:55.961Z,16.60
2018-09-12T12:12:24.582Z,16.80
2018-09-12T12:14:53.258Z,17.00
2018-09-12T12:17:21.918Z,17.20
2018-09-12T12:19:51.550Z,17.20
2018-09-12T12:22:20.166Z,17.30
2018-09-12T12:24:48.839Z,17.40
2018-09-12T12:27:17.652Z,17.50
2018-09-12T12:29:46.266Z,17.40
2018-09-12T12:32:15.500Z,17.20
2018-09-12T12:34:44.132Z,17.20
2018-09-12T12:37:12.751Z,17.20
2018-09-12T12:39:41.355Z,17.40
2018-09-12T12:42:09.940Z,17.50
2018-09-12T12:44:38.528Z,17.60
2018-09-12T12:47:07.213Z,17.30
2018-09-12T12:49:36.285Z,17.20
2018-09-12T12:52:05.385Z,17.20
2018-09-12T12:54:34.039Z,17.30
2018-09-12T12:57:03.016Z,17.30
2018-09-12T12:59:32.039Z,17.30
2018-09-12T13:02:01.561Z,17.50
2018-09-12T13:04:30.225Z,17.50
2018-09-12T13:06:58.858Z,17.60
2018-09-12T13:09:27.518Z,17.80
2018-09-12T13:11:56.200Z,17.90
2018-09-12T13:14:24.863Z,18.00
2018-09-12T13:16:53.455Z,18.00
2018-09-12T13:19:22.087Z,18.00
2018-09-12T13:21:50.886Z,17.90
2018-09-12T13:24:19.316Z,17.70
2018-09-12T13:26:47.920Z,17.50
2018-09-12T13:29:16.568Z,17.30
2018-09-12T13:31:45.772Z,17.30
2018-09-12T13:34:14.373Z,17.40
2018-09-12T13:36:43.202Z,17.30
2018-09-12T13:39:14.296Z,17.30
2018-09-12T13:41:42.897Z,17.20
2018-09-12T13:44:11.662Z,17.30
2018-09-12T13:46:40.240Z,17.40
2018-09-12T13:49:08.837Z,17.50
2018-09-12T13:51:37.942Z,17.50
2018-09-12T13:54:06.535Z,17.60
2018-09-12T13:56:35.224Z,17.50
2018-09-12T13:59:03.905Z,17.50
2018-09-12T14:01:32.550Z,17.40
2018-09-12T14:04:01.216Z,17.20
2018-09-12T14:06:29.790Z,17.20
2018-09-12T14:08:58.477Z,17.20
2018-09-12T14:11:27.191Z,17.10
2018-09-12T14:13:55.868Z,17.20
2018-09-12T14:16:24.539Z,17.20
2018-09-12T14:18:57.519Z,17.30
2018-09-12T14:21:26.428Z,17.40
2018-09-12T14:23:55.064Z,17.50
2018-09-12T14:26:23.735Z,17.60
2018-09-12T14:28:52.489Z,17.70
2018-09-12T14:31:22.917Z,17.70
2018-09-12T14:33:51.547Z,17.70
2018-09-12T14:36:20.235Z,17.70
2018-09-12T14:38:49.030Z,17.70
2018-09-12T14:41:17.655Z,17.60
2018-09-12T14:43:46.344Z,17.40
2018-09-12T14:46:15.190Z,17.40
2018-09-12T14:48:43.885Z,17.30
2018-09-12T14:51:12.492Z,17.10
2018-09-12T14:53:41.142Z,17.00
2018-09-12T14:56:09.798Z,16.90
2018-09-12T14:58:38.432Z,16.70
2018-09-12T15:01:07.058Z,16.60
2018-09-12T15:03:35.678Z,16.50
2018-09-12T15:06:04.349Z,16.40
2018-09-12T15:08:33.028Z,16.40
2018-09-12T15:11:01.807Z,16.40
2018-09-12T15:13:30.577Z,16.50
2018-09-12T15:16:00.096Z,16.60
2018-09-12T15:18:31.345Z,16.70
2018-09-12T15:21:00.087Z,16.60
2018-09-12T15:23:28.792Z,16.40
2018-09-12T15:25:57.437Z,16.40
2018-09-12T15:28:26.182Z,16.40
2018-09-12T15:30:54.889Z,16.40
2018-09-12T15:33:23.508Z,16.40
2018-09-12T15:35:52.208Z,16.40
2018-09-12T15:38:20.881Z,16.60
2018-09-12T15:40:49.591Z,16.50
2018-09-12T15:43:18.242Z,16.50
2018-09-12T15:45:47.081Z,16.40
2018-09-12T15:48:15.817Z,16.40
2018-09-12T15:50:44.492Z,16.40
2018-09-12T15:53:13.204Z,16.30
2018-09-12T15:55:41.950Z,16.30
2018-09-12T15:58:10.767Z,16.40
2018-09-12T16:00:39.406Z,16.40
2018-09-12T16:03:08.067Z,16.40
2018-09-12T16:05:36.822Z,16.40
2018-09-12T16:08:05.551Z,16.40
2018-09-12T16:10:34.465Z,16.40
2018-09-12T16:13:03.143Z,16.40
2018-09-12T16:15:32.030Z,16.50
2018-09-12T16:18:01.087Z,16.60
2018-09-12T16:20:29.793Z,16.70
2018-09-12T16:22:58.515Z,16.60
2018-09-12T16:25:27.200Z,16.60
2018-09-12T16:27:55.802Z,16.70
2018-09-12T16:30:24.446Z,16.80
2018-09-12T16:32:53.148Z,16.80
2018-09-12T16:35:21.902Z,16.80
2018-09-12T16:37:50.678Z,16.80
2018-09-12T16:40:20.308Z,16.80
2018-09-12T16:42:49.093Z,16.80
2018-09-12T16:45:17.807Z,16.90
2018-09-12T16:47:46.518Z,16.80
2018-09-12T16:50:15.179Z,16.80
2018-09-12T16:52:43.867Z,16.80
2018-09-12T16:55:12.589Z,16.80
2018-09-12T16:57:41.233Z,16.80
2018-09-12T17:00:09.943Z,16.80
2018-09-12T17:02:38.635Z,16.80
2018-09-12T17:05:07.443Z,16.90
2018-09-12T17:07:36.978Z,16.90
2018-09-12T17:10:05.655Z,16.80
2018-09-12T17:12:34.441Z,16.80
2018-09-12T17:15:03.100Z,16.80
2018-09-12T17:17:31.754Z,16.80
2018-09-12T17:20:00.438Z,16.80
2018-09-12T17:22:29.066Z,16.80
2018-09-12T17:24:57.676Z,16.90
2018-09-12T17:27:27.234Z,16.70
2018-09-12T17:29:55.917Z,16.70
2018-09-12T17:32:24.658Z,16.60
2018-09-12T17:34:53.410Z,16.60
2018-09-12T17:37:22.056Z,16.70
2018-09-12T17:39:50.726Z,16.60
2018-09-12T17:42:19.383Z,16.70
2018-09-12T17:44:48.109Z,16.60
2018-09-12T17:47:16.779Z,16.60
2018-09-12T17:49:45.649Z,16.50
2018-09-12T17:52:14.346Z,16.50
2018-09-12T17:54:43.348Z,16.50
2018-09-12T17:57:12.101Z,16.50
2018-09-12T17:59:40.894Z,16.40
2018-09-12T18:02:09.706Z,16.40
2018-09-12T18:04:38.504Z,16.50
2018-09-12T18:07:07.362Z,16.40
2018-09-12T18:09:36.111Z,16.30
2018-09-12T18:12:05.026Z,16.30
2018-09-12T18:14:33.749Z,16.40
2018-09-12T18:17:02.406Z,16.40
2018-09-12T18:19:31.067Z,16.40
2018-09-12T18:21:59.831Z,16.40
2018-09-12T18:24:29.390Z,16.20
2018-09-12T18:26:58.220Z,16.10
2018-09-12T18:29:27.166Z,16.00
2018-09-12T18:31:55.910Z,15.90
2018-09-12T18:34:24.607Z,15.80
2018-09-12T18:36:53.348Z,15.70
2018-09-12T18:39:22.025Z,15.70
2018-09-12T18:41:50.749Z,15.70
2018-09-12T18:44:19.575Z,15.60
2018-09-12T18:46:48.378Z,15.50
2018-09-12T18:49:17.145Z,15.50
2018-09-12T18:51:47.845Z,15.40
2018-09-12T18:54:16.790Z,15.40
2018-09-12T18:56:45.539Z,15.30
2018-09-12T18:59:15.186Z,15.30
2018-09-12T19:01:43.919Z,15.40
2018-09-12T19:04:12.630Z,15.30
2018-09-12T19:06:41.376Z,15.30
2018-09-12T19:09:11.500Z,15.30
2018-09-12T19:11:40.240Z,15.40
2018-09-12T19:14:09.015Z,15.40
2018-09-12T19:16:37.742Z,15.40
2018-09-12T19:19:06.529Z,15.50
2018-09-12T19:21:35.244Z,15.40
2018-09-12T19:24:04.021Z,15.50
2018-09-12T19:26:32.772Z,15.50
2018-09-12T19:29:01.606Z,15.40
2018-09-12T19:31:30.508Z,15.40
2018-09-12T19:33:59.478Z,15.30
2018-09-12T19:36:28.205Z,15.30
2018-09-12T19:38:56.919Z,15.20
2018-09-12T19:41:25.603Z,15.30
2018-09-12T19:43:54.372Z,15.40
2018-09-12T19:46:23.188Z,15.40
2018-09-12T19:48:51.957Z,15.30
2018-09-12T19:51:20.726Z,15.30
2018-09-12T19:53:49.434Z,15.30
2018-09-12T19:56:18.291Z,15.40
2018-09-12T19:58:47.156Z,15.40
2018-09-12T20:01:15.904Z,15.30
2018-09-12T20:03:44.650Z,15.30
2018-09-12T20:06:13.490Z,15.20
2018-09-12T20:08:42.295Z,15.30
2018-09-12T20:11:11.100Z,15.20
2018-09-12T20:13:39.911Z,15.20
2018-09-12T20:16:08.864Z,15.20
2018-09-12T20:18:39.334Z,15.00
2018-09-12T20:21:08.204Z,15.00
2018-09-12T20:23:37.102Z,14.90
2018-09-12T20:26:06.049Z,14.90
2018-09-12T20:28:41.267Z,14.90
2018-09-12T20:31:10.477Z,15.00
2018-09-12T20:33:39.447Z,15.00
2018-09-12T20:36:08.331Z,15.00
2018-09-12T20:38:37.169Z,15.00
2018-09-12T20:41:06.119Z,15.00
2018-09-12T20:43:34.999Z,15.10
2018-09-12T20:46:03.893Z,15.00
2018-09-12T20:48:32.725Z,15.00
2018-09-12T20:51:01.408Z,15.10
2018-09-12T20:53:30.310Z,15.00
2018-09-12T20:55:59.046Z,15.00
2018-09-12T20:58:27.736Z,15.00
2018-09-12T21:00:56.549Z,15.00
2018-09-12T21:03:25.270Z,15.00
2018-09-12T21:05:54.026Z,15.00
2018-09-12T21:08:22.727Z,15.00
2018-09-12T21:10:51.522Z,15.10
2018-09-12T21:13:20.178Z,15.10
2018-09-12T21:15:48.947Z,15.10
2018-09-12T21:18:17.698Z,15.00
2018-09-12T21:20:46.618Z,15.10
2018-09-12T21:23:15.525Z,15.10
2018-09-12T21:25:44.387Z,15.20
2018-09-12T21:28:13.291Z,15.20
2018-09-12T21:30:42.018Z,15.20
2018-09-12T21:33:10.892Z,15.20
2018-09-12T21:35:39.605Z,15.20
2018-09-12T21:38:08.446Z,15.10
2018-09-12T21:40:37.568Z,15.00
2018-09-12T21:43:06.364Z,15.00
2018-09-12T21:45:35.116Z,14.90
2018-09-12T21:48:03.891Z,14.90
2018-09-12T21:50:32.610Z,14.90
2018-09-12T21:53:01.474Z,14.80
2018-09-12T21:55:30.342Z,14.70
2018-09-12T21:57:59.202Z,14.70
2018-09-12T22:00:28.074Z,14.60
2018-09-12T22:02:56.916Z,14.60
2018-09-12T22:05:25.545Z,14.60
2018-09-12T22:07:54.114Z,14.70
2018-09-12T22:10:22.786Z,14.70
2018-09-12T22:12:51.422Z,14.70
2018-09-12T22:15:20.109Z,14.60
2018-09-12T22:17:48.927Z,14.60
2018-09-12T22:20:17.656Z,14.60
2018-09-12T22:22:46.266Z,14.60
2018-09-12T22:25:14.960Z,14.60
2018-09-12T22:27:43.690Z,14.60
2018-09-12T22:30:12.377Z,14.70
2018-09-12T22:32:41.049Z,14.70
2018-09-12T22:35:09.785Z,14.60
2018-09-12T22:37:38.574Z,14.50
2018-09-12T22:40:08.406Z,14.50
2018-09-12T22:42:37.276Z,14.50
2018-09-12T22:45:06.184Z,14.50
2018-09-12T22:47:34.970Z,14.50
2018-09-12T22:50:03.873Z,14.60
2018-09-12T22:52:32.557Z,14.60
2018-09-12T22:55:01.260Z,14.60
2018-09-12T22:57:30.133Z,14.60
2018-09-12T22:59:58.955Z,14.60
2018-09-12T23:02:27.694Z,14.50
2018-09-12T23:04:57.201Z,14.50
2018-09-12T23:07:25.898Z,14.50
2018-09-12T23:09:54.502Z,14.50
2018-09-12T23:12:23.220Z,14.60
2018-09-12T23:14:52.003Z,14.60
2018-09-12T23:17:20.722Z,14.60
2018-09-12T23:19:49.406Z,14.70
2018-09-12T23:22:18.084Z,14.70
2018-09-12T23:24:46.847Z,14.70
2018-09-12T23:27:15.451Z,14.70
2018-09-12T23:29:44.069Z,14.70
2018-09-12T23:32:12.715Z,14.60
2018-09-12T23:34:41.387Z,14.60
2018-09-12T23:37:10.188Z,14.60
2018-09-12T23:39:38.917Z,14.70
2018-09-12T23:42:07.755Z,14.80
2018-09-12T23:44:36.434Z,14.90
2018-09-12T23:47:05.209Z,14.90
2018-09-12T23:49:33.841Z,14.90
2018-09-12T23:52:02.547Z,15.00
2018-09-12T23:54:31.248Z,15.00
2018-09-12T23:57:00.264Z,15.00
2018-09-12T23:59:29.006Z,14.90
